EST,Max TemperatureF,Mean TemperatureF,Min TemperatureF,Max Dew PointF,MeanDew PointF,Min DewpointF,Max Humidity, Mean Humidity, Min Humidity, Max Sea Level PressureIn, Mean Sea Level PressureIn, Min Sea Level PressureIn, Max VisibilityMiles, Mean VisibilityMiles, Min VisibilityMiles, Max Wind SpeedMPH, Mean Wind SpeedMPH, Max Gust SpeedMPH,PrecipitationIn, CloudCover, Events, WindDirDegrees
2013-12-1,77,70,63,70,67,60,100,91,69,30.11,30.03,29.96,10,7,1,12,5,,0.85,7,Rain,312
2013-12-2,73,67,61,67,64,58,100,90,57,29.94,29.89,29.84,10,7,0,13,6,,0.00,6,Fog,297
2013-12-3,75,68,60,65,62,56,97,77,51,30.02,29.97,29.92,10,10,9,7,2,,0.00,4,,147
2013-12-4,80,72,64,66,64,63,97,76,60,30.11,30.06,30.01,10,10,8,13,4,16,0.00,2,,148
2013-12-5,80,76,73,69,68,65,79,73,69,30.18,30.13,30.09,10,10,10,17,9,22,0.00,2,,120
2013-12-6,81,78,75,70,68,65,83,73,62,30.20,30.15,30.10,10,10,10,18,14,24,0.00,3,,127
2013-12-7,81,75,69,70,67,65,90,74,62,30.23,30.18,30.15,10,10,2,18,8,26,0.07,4,Rain,101
2013-12-8,81,76,71,71,68,65,94,77,61,30.22,30.17,30.14,10,9,2,21,12,26,0.14,6,Rain,112
2013-12-9,82,78,75,70,67,63,79,69,56,30.21,30.16,30.13,10,10,10,21,15,23,0.00,5,,128
2013-12-10,82,78,75,71,70,68,85,76,67,30.17,30.13,30.10,10,10,7,15,10,20,0.00,4,,134
2013-12-11,82,76,71,72,70,69,94,80,69,30.21,30.16,30.14,10,10,8,12,4,,0.00,3,,83
2013-12-12,79,74,70,70,65,58,93,76,59,30.23,30.18,30.15,10,10,9,17,8,25,0.00,4,,359
2013-12-13,77,74,71,68,63,57,79,68,59,30.21,30.14,30.10,10,10,10,22,16,28,0.00,6,Rain,75
2013-12-14,82,78,75,71,69,66,79,74,67,30.12,30.06,30.01,10,10,10,20,15,28,0.00,5,,134
2013-12-15,84,78,72,73,71,68,93,79,63,30.07,30.00,29.95,10,10,9,16,8,23,0.00,2,,240
2013-12-16,73,68,62,66,60,57,88,74,59,30.16,30.10,30.04,10,10,10,13,9,,0.00,6,,337
2013-12-17,78,69,60,62,58,55,90,70,52,30.19,30.14,30.11,10,10,9,17,9,20,0.00,1,,11
2013-12-18,77,68,60,58,56,54,90,68,47,30.24,30.21,30.17,10,10,10,15,8,22,0.00,0,,347
2013-12-19,78,69,60,62,58,56,86,64,52,30.25,30.20,30.16,10,10,10,16,8,21,0.00,3,,72
2013-12-20,81,78,75,68,66,62,74,67,60,30.20,30.16,30.12,10,10,10,16,13,23,0.00,3,,102
2013-12-21,82,80,77,72,70,69,82,75,65,30.16,30.12,30.08,10,10,10,20,15,26,0.00,3,,123
2013-12-22,82,80,77,72,71,69,83,76,67,30.17,30.13,30.10,10,10,10,21,15,28,0.00,5,,133
2013-12-23,82,78,71,72,71,69,93,79,67,30.19,30.16,30.13,10,10,10,17,12,23,0.00,3,,144
2013-12-24,84,75,66,71,66,61,100,78,55,30.19,30.14,30.09,10,10,7,17,6,25,0.00,5,,351
2013-12-25,77,74,71,66,64,63,78,71,65,30.18,30.13,30.10,10,10,10,21,16,29,0.00,7,,57
2013-12-26,78,76,73,70,68,66,83,75,68,30.18,30.12,30.08,10,10,10,15,12,22,0.00,7,,61
2013-12-27,81,78,75,69,68,66,79,74,67,30.20,30.15,30.10,10,10,10,16,11,22,0.00,4,,65
2013-12-28,81,78,75,72,69,66,83,76,69,30.19,30.12,30.04,10,10,10,22,14,31,0.00,5,Rain,99
2013-12-29,81,78,75,73,72,71,94,81,74,30.05,30.00,29.95,10,10,9,18,13,25,0.01,5,Rain,172
2013-12-30,77,72,66,73,69,64,100,91,74,30.15,30.07,29.99,10,8,2,12,5,,0.00,6,,321
2013-12-31,75,70,64,67,63,61,100,82,66,30.24,30.18,30.12,10,10,10,20,11,26,0.00,7,Rain,22